createdAt,value
2023-03-20T00:07:03.877Z,243.50
2023-03-20T00:17:12.566Z,249.40
2023-03-20T00:27:19.104Z,255.90
2023-03-20T00:37:23.405Z,243.73
2023-03-20T00:47:30.270Z,271.73
2023-03-20T00:57:41.889Z,240.13
2023-03-20T01:07:47.154Z,242.00
2023-03-20T01:17:51.203Z,255.83
2023-03-20T01:27:58.105Z,258.27
2023-03-20T01:38:02.806Z,249.00
2023-03-20T01:48:18.629Z,255.97
2023-03-20T01:58:27.563Z,257.47
2023-03-20T02:08:37.965Z,241.00
2023-03-20T02:18:44.932Z,256.23
2023-03-20T02:29:45.545Z,243.30
2023-03-20T02:40:06.973Z,243.67
2023-03-20T02:50:17.846Z,245.23
2023-03-20T03:00:30.564Z,240.90
2023-03-20T03:10:39.243Z,237.57
2023-03-20T03:20:48.081Z,251.63
2023-03-20T03:30:53.570Z,237.00
2023-03-20T03:41:17.800Z,240.20
2023-03-20T03:51:25.997Z,236.20
2023-03-20T04:01:45.003Z,243.07
2023-03-20T04:11:52.531Z,238.20
2023-03-20T04:21:57.536Z,236.30
2023-03-20T04:32:01.074Z,247.07
2023-03-20T04:42:31.960Z,229.30
2023-03-20T04:52:39.439Z,230.20
2023-03-20T05:02:45.641Z,237.43
2023-03-20T05:12:51.626Z,237.77
2023-03-20T05:23:14.894Z,232.07
2023-03-20T05:33:44.739Z,244.03
2023-03-20T05:43:59.097Z,245.93
2023-03-20T05:54:20.551Z,250.13
2023-03-20T06:04:37.730Z,243.23
2023-03-20T06:15:11.362Z,263.33
2023-03-20T06:25:21.880Z,285.50
2023-03-20T06:35:25.641Z,292.20
2023-03-20T06:45:30.726Z,289.10
2023-03-20T06:55:37.983Z,285.40
2023-03-20T07:05:44.959Z,257.20
2023-03-20T07:16:03.364Z,266.20
2023-03-20T07:26:13.840Z,257.43
2023-03-20T07:36:17.874Z,237.50
2023-03-20T07:46:23.416Z,246.70
2023-03-20T07:56:27.068Z,250.30
2023-03-20T08:06:31.936Z,238.53
2023-03-20T08:16:35.870Z,235.37
2023-03-20T08:26:40.955Z,241.23
2023-03-20T08:36:44.530Z,241.43
2023-03-20T08:46:49.530Z,230.73
2023-03-20T08:56:53.008Z,229.43
2023-03-20T09:06:57.943Z,228.37
2023-03-20T09:17:01.355Z,225.87
2023-03-20T09:27:06.430Z,229.27
2023-03-20T09:37:09.924Z,230.53
2023-03-20T09:47:21.743Z,239.50
2023-03-20T09:57:30.277Z,233.13
2023-03-20T10:07:35.185Z,229.13
2023-03-20T10:17:53.140Z,230.90
2023-03-20T10:28:01.390Z,229.53
2023-03-20T10:38:19.144Z,229.10
2023-03-20T10:48:34.177Z,223.52
2023-03-20T10:58:41.863Z,239.13
2023-03-20T11:08:51.314Z,238.83
2023-03-20T11:18:55.345Z,249.23
2023-03-20T11:29:01.687Z,256.50
2023-03-20T11:39:14.397Z,246.60
2023-03-20T11:49:24.711Z,232.60
2023-03-20T11:59:34.571Z,236.17
2023-03-20T12:09:44.848Z,236.80
2023-03-20T12:19:50.514Z,234.00
2023-03-20T12:30:02.112Z,218.03
2023-03-20T12:40:07.523Z,209.50
2023-03-20T12:50:28.324Z,214.53
2023-03-20T13:00:38.720Z,229.00
2023-03-20T13:10:51.321Z,231.20
2023-03-20T13:20:57.392Z,240.83
2023-03-20T13:31:10.486Z,224.47
2023-03-20T13:41:15.140Z,227.70
2023-03-20T13:51:31.587Z,220.90
2023-03-20T14:01:49.381Z,220.45
2023-03-20T14:11:55.326Z,221.80
2023-03-20T14:21:59.807Z,227.47
2023-03-20T14:32:36.490Z,217.07
2023-03-20T14:42:52.526Z,228.33
2023-03-20T14:53:11.859Z,229.90
2023-03-20T15:03:18.733Z,235.47
2023-03-20T15:13:25.632Z,225.63
2023-03-20T15:23:29.852Z,232.93
2023-03-20T15:33:38.243Z,233.90
2023-03-20T15:43:42.367Z,232.23
2023-03-20T15:53:50.151Z,235.67
2023-03-20T16:03:59.287Z,229.87
2023-03-20T16:14:05.189Z,238.47
2023-03-20T16:24:16.286Z,233.03
2023-03-20T16:34:25.066Z,233.57
2023-03-20T16:44:35.435Z,233.27
2023-03-20T16:54:40.880Z,236.83
2023-03-20T17:04:46.034Z,231.63
2023-03-20T17:14:51.355Z,230.37
2023-03-20T17:24:55.008Z,245.70
2023-03-20T17:35:00.465Z,237.50
2023-03-20T17:45:05.659Z,252.63
2023-03-20T17:55:11.452Z,251.57
2023-03-20T18:05:15.537Z,243.20
2023-03-20T18:15:20.839Z,247.80
2023-03-20T18:25:26.100Z,247.37
2023-03-20T18:35:31.836Z,244.90
2023-03-20T18:45:35.654Z,249.20
2023-03-20T18:55:41.228Z,248.03
2023-03-20T19:05:45.013Z,246.73
2023-03-20T19:15:50.261Z,246.67
2023-03-20T19:25:56.043Z,257.37
2023-03-20T19:36:03.794Z,251.73
2023-03-20T19:46:18.657Z,280.67
2023-03-20T19:56:31.294Z,281.37
2023-03-20T20:06:35.034Z,302.07
2023-03-20T20:16:42.673Z,311.53
2023-03-20T20:26:59.993Z,296.93
2023-03-20T20:37:51.763Z,317.73
2023-03-20T20:47:36.837Z,322.60
2023-03-20T20:57:42.085Z,309.93
2023-03-20T21:07:47.987Z,314.90
2023-03-20T21:18:00.419Z,325.17
2023-03-20T21:28:05.150Z,339.27
2023-03-20T21:38:55.516Z,334.17
2023-03-20T21:49:22.912Z,318.10
2023-03-20T22:31:05.458Z,326.53
2023-03-20T22:51:03.796Z,256.60
2023-03-20T23:01:10.828Z,257.90
2023-03-20T23:11:17.786Z,254.83
2023-03-20T23:21:22.935Z,262.83
2023-03-20T23:31:28.276Z,260.53
2023-03-20T23:51:57.329Z,260.33
